MSC Armonia — H8EW — position and weather

sailwx.info

Track history (hours):
 
Tides and Currents Weather Stations Pressure Air Temp Water Temp Dewpoint Dewpoint Depression Visibility Wind Speed Wind Dir Waves Ship Positions

MSC Armonia

Operator: Mediterranean Shipping Company

Last reported at 2019-Apr-22 23:46 UTC. Time now 2019-Apr-24 22:02 UTC.
Position N 25°32' W 080°00'.

Length 275 m; draft 6.8 m.

Type: Ship. MMSI: 357281000.

Date/timePositionNaut miles runAvg speedWind from/ knotsBaromVisibWave heightAir tempDewpointWater temp
2019-Apr-22 23:46N 25°32' W 080°00'414.3
2019-Apr-22 23:31N 25°35' W 080°00'713.8
2019-Apr-22 23:00N 25°42' W 080°01'611.0
2019-Apr-22 22:30N 25°46' W 080°06'4 8.8
2019-Apr-22 22:00N 25°47' W 080°10'0 0.3
2019-Apr-22 21:29N 25°47' W 080°10'0 0.0
2019-Apr-22 20:59N 25°47' W 080°10'0 0.0
2019-Apr-22 20:29N 25°47' W 080°10'0 0.0
2019-Apr-22 19:59N 25°47' W 080°10'0 0.0
2019-Apr-22 19:29N 25°47' W 080°10'0 0.0
2019-Apr-22 18:59N 25°47' W 080°10'0 0.0
2019-Apr-22 18:29N 25°47' W 080°10'0 0.0
2019-Apr-22 17:59N 25°47' W 080°10'0 0.0
2019-Apr-22 17:29N 25°47' W 080°10'0 0.0
2019-Apr-22 16:56N 25°47' W 080°10'0 0.0
2019-Apr-22 16:29N 25°47' W 080°10'0 0.0
2019-Apr-22 15:59N 25°47' W 080°10'0 0.0
2019-Apr-22 15:29N 25°47' W 080°10'0 0.0
2019-Apr-22 14:59N 25°47' W 080°10'0 0.0
2019-Apr-22 14:29N 25°47' W 080°10'0 0.0
2019-Apr-22 13:56N 25°47' W 080°10'0 0.0
2019-Apr-22 13:29N 25°47' W 080°10'0 0.0
2019-Apr-22 12:59N 25°47' W 080°10'0 0.0
2019-Apr-22 12:26N 25°47' W 080°10'0 0.0
2019-Apr-22 11:59N 25°47' W 080°10'0 0.0
2019-Apr-22 11:29N 25°47' W 080°10'0 0.0
2019-Apr-22 10:59N 25°47' W 080°10'0 0.0
2019-Apr-22 10:26N 25°47' W 080°10'0 0.0
2019-Apr-22 09:59N 25°47' W 080°10'0 0.0
2019-Apr-22 09:29N 25°47' W 080°10'1 1.2
2019-Apr-22 09:00N 25°47' W 080°11'3 5.3
2019-Apr-22 08:30N 25°46' W 080°08'611.4
2019-Apr-22 08:00N 25°46' W 080°02'611.8
2019-Apr-22 07:31N 25°40' W 079°59'814.9
2019-Apr-22 07:00N 25°33' W 079°58'  
2019-Apr-19 23:31N 20°35' W 086°57'120.0
2019-Apr-19 23:30N 20°35' W 086°57'4 6.9
2019-Apr-19 22:56N 20°31' W 086°57'0 0.0
2019-Apr-19 22:29N 20°31' W 086°57'0 0.0
2019-Apr-19 21:59N 20°31' W 086°57'0 0.0
2019-Apr-19 21:29N 20°31' W 086°57'0 0.0
2019-Apr-19 20:59N 20°31' W 086°57'0 0.0
2019-Apr-19 20:29N 20°31' W 086°57'0 0.0
2019-Apr-19 19:59N 20°31' W 086°57'0 0.0
2019-Apr-19 19:26N 20°31' W 086°57'0 0.0
2019-Apr-19 18:59N 20°31' W 086°57'0 0.0
2019-Apr-19 18:29N 20°31' W 086°57'0 0.0
2019-Apr-19 17:59N 20°31' W 086°57'0 0.0
2019-Apr-19 17:29N 20°31' W 086°57'0 0.0
2019-Apr-19 16:59N 20°31' W 086°57'0 0.0
2019-Apr-19 16:29N 20°31' W 086°57'0 0.0
2019-Apr-19 15:59N 20°31' W 086°57'0 0.0
2019-Apr-19 15:26N 20°31' W 086°57'0 0.0
2019-Apr-19 14:59N 20°31' W 086°57'0 0.4
2019-Apr-19 14:30N 20°31' W 086°57'2 3.6
2019-Apr-19 14:01N 20°33' W 086°57'  
2019-Apr-15 23:30N 25°39' W 079°54'815.2
2019-Apr-15 23:00N 25°44' W 080°01'612.3
2019-Apr-15 22:30N 25°46' W 080°07'3 6.0
2019-Apr-15 21:59N 25°47' W 080°10'0 0.0
2019-Apr-15 21:29N 25°47' W 080°10'0 0.0
2019-Apr-15 20:59N 25°47' W 080°10'0 0.0
2019-Apr-15 20:26N 25°47' W 080°10'0 0.0
2019-Apr-15 19:59N 25°47' W 080°10'0 0.0
2019-Apr-15 19:29N 25°47' W 080°10'0 0.0
2019-Apr-15 18:59N 25°47' W 080°10'0 0.0
2019-Apr-15 18:29N 25°47' W 080°10'0 0.0
2019-Apr-15 17:59N 25°47' W 080°10'0 0.0
2019-Apr-15 17:29N 25°47' W 080°10'0 0.0
2019-Apr-15 16:59N 25°47' W 080°10'0 0.0
2019-Apr-15 16:29N 25°47' W 080°10'0 0.0
2019-Apr-15 15:59N 25°47' W 080°10'0 0.0
2019-Apr-15 15:29N 25°47' W 080°10'0 0.0
2019-Apr-15 14:59N 25°47' W 080°10'0 0.0
2019-Apr-15 14:29N 25°47' W 080°10'0 0.0
2019-Apr-15 13:59N 25°47' W 080°10'0 0.0
2019-Apr-15 13:29N 25°47' W 080°10'0 0.0
2019-Apr-15 12:59N 25°47' W 080°10'0 0.0
2019-Apr-15 12:29N 25°47' W 080°10'0 0.0
2019-Apr-15 11:59N 25°47' W 080°10'0 0.0
2019-Apr-15 11:29N 25°47' W 080°10'0 0.0
2019-Apr-15 10:59N 25°47' W 080°10'0 0.0
2019-Apr-15 10:29N 25°47' W 080°10'0 0.0
2019-Apr-15 09:59N 25°47' W 080°10'0 0.0
2019-Apr-15 09:29N 25°47' W 080°10'0 1.0
2019-Apr-15 09:01N 25°47' W 080°11'2 4.7
2019-Apr-15 08:30N 25°46' W 080°09'611.6
2019-Apr-15 08:00N 25°46' W 080°02'611.5
2019-Apr-15 07:30N 25°41' W 079°59'816.4
2019-Apr-15 07:01N 25°33' W 079°58'  
Track history (hours):
 
Tides and Currents Weather Stations Pressure Air Temp Water Temp Dewpoint Dewpoint Depression Visibility Wind Speed Wind Dir Waves Ship Positions

MSC Armonia

Operator: Mediterranean Shipping Company

Last reported at 2019-Apr-22 23:46 UTC. Time now 2019-Apr-24 22:02 UTC.
Position N 25°32' W 080°00'.

Length 275 m; draft 6.8 m.

Type: Ship. MMSI: 357281000.

Date/timePositionNaut miles runAvg speedWind from/ knotsBaromVisibWave heightAir tempDewpointWater temp
2019-Apr-22 23:46N 25°32' W 080°00'414.3
2019-Apr-22 23:31N 25°35' W 080°00'713.8
2019-Apr-22 23:00N 25°42' W 080°01'611.0
2019-Apr-22 22:30N 25°46' W 080°06'4 8.8
2019-Apr-22 22:00N 25°47' W 080°10'0 0.3
2019-Apr-22 21:29N 25°47' W 080°10'0 0.0
2019-Apr-22 20:59N 25°47' W 080°10'0 0.0
2019-Apr-22 20:29N 25°47' W 080°10'0 0.0
2019-Apr-22 19:59N 25°47' W 080°10'0 0.0
2019-Apr-22 19:29N 25°47' W 080°10'0 0.0
2019-Apr-22 18:59N 25°47' W 080°10'0 0.0
2019-Apr-22 18:29N 25°47' W 080°10'0 0.0
2019-Apr-22 17:59N 25°47' W 080°10'0 0.0
2019-Apr-22 17:29N 25°47' W 080°10'0 0.0
2019-Apr-22 16:56N 25°47' W 080°10'0 0.0
2019-Apr-22 16:29N 25°47' W 080°10'0 0.0
2019-Apr-22 15:59N 25°47' W 080°10'0 0.0
2019-Apr-22 15:29N 25°47' W 080°10'0 0.0
2019-Apr-22 14:59N 25°47' W 080°10'0 0.0
2019-Apr-22 14:29N 25°47' W 080°10'0 0.0
2019-Apr-22 13:56N 25°47' W 080°10'0 0.0
2019-Apr-22 13:29N 25°47' W 080°10'0 0.0
2019-Apr-22 12:59N 25°47' W 080°10'0 0.0
2019-Apr-22 12:26N 25°47' W 080°10'0 0.0
2019-Apr-22 11:59N 25°47' W 080°10'0 0.0
2019-Apr-22 11:29N 25°47' W 080°10'0 0.0
2019-Apr-22 10:59N 25°47' W 080°10'0 0.0
2019-Apr-22 10:26N 25°47' W 080°10'0 0.0
2019-Apr-22 09:59N 25°47' W 080°10'0 0.0
2019-Apr-22 09:29N 25°47' W 080°10'1 1.2
2019-Apr-22 09:00N 25°47' W 080°11'3 5.3
2019-Apr-22 08:30N 25°46' W 080°08'611.4
2019-Apr-22 08:00N 25°46' W 080°02'611.8
2019-Apr-22 07:31N 25°40' W 079°59'814.9
2019-Apr-22 07:00N 25°33' W 079°58'  
2019-Apr-19 23:31N 20°35' W 086°57'120.0
2019-Apr-19 23:30N 20°35' W 086°57'4 6.9
2019-Apr-19 22:56N 20°31' W 086°57'0 0.0
2019-Apr-19 22:29N 20°31' W 086°57'0 0.0
2019-Apr-19 21:59N 20°31' W 086°57'0 0.0
2019-Apr-19 21:29N 20°31' W 086°57'0 0.0
2019-Apr-19 20:59N 20°31' W 086°57'0 0.0
2019-Apr-19 20:29N 20°31' W 086°57'0 0.0
2019-Apr-19 19:59N 20°31' W 086°57'0 0.0
2019-Apr-19 19:26N 20°31' W 086°57'0 0.0
2019-Apr-19 18:59N 20°31' W 086°57'0 0.0
2019-Apr-19 18:29N 20°31' W 086°57'0 0.0
2019-Apr-19 17:59N 20°31' W 086°57'0 0.0
2019-Apr-19 17:29N 20°31' W 086°57'0 0.0
2019-Apr-19 16:59N 20°31' W 086°57'0 0.0
2019-Apr-19 16:29N 20°31' W 086°57'0 0.0
2019-Apr-19 15:59N 20°31' W 086°57'0 0.0
2019-Apr-19 15:26N 20°31' W 086°57'0 0.0
2019-Apr-19 14:59N 20°31' W 086°57'0 0.4
2019-Apr-19 14:30N 20°31' W 086°57'2 3.6
2019-Apr-19 14:01N 20°33' W 086°57'  
2019-Apr-15 23:30N 25°39' W 079°54'815.2
2019-Apr-15 23:00N 25°44' W 080°01'612.3
2019-Apr-15 22:30N 25°46' W 080°07'3 6.0
2019-Apr-15 21:59N 25°47' W 080°10'0 0.0
2019-Apr-15 21:29N 25°47' W 080°10'0 0.0
2019-Apr-15 20:59N 25°47' W 080°10'0 0.0
2019-Apr-15 20:26N 25°47' W 080°10'0 0.0
2019-Apr-15 19:59N 25°47' W 080°10'0 0.0
2019-Apr-15 19:29N 25°47' W 080°10'0 0.0
2019-Apr-15 18:59N 25°47' W 080°10'0 0.0
2019-Apr-15 18:29N 25°47' W 080°10'0 0.0
2019-Apr-15 17:59N 25°47' W 080°10'0 0.0
2019-Apr-15 17:29N 25°47' W 080°10'0 0.0
2019-Apr-15 16:59N 25°47' W 080°10'0 0.0
2019-Apr-15 16:29N 25°47' W 080°10'0 0.0
2019-Apr-15 15:59N 25°47' W 080°10'0 0.0
2019-Apr-15 15:29N 25°47' W 080°10'0 0.0
2019-Apr-15 14:59N 25°47' W 080°10'0 0.0
2019-Apr-15 14:29N 25°47' W 080°10'0 0.0
2019-Apr-15 13:59N 25°47' W 080°10'0 0.0
2019-Apr-15 13:29N 25°47' W 080°10'0 0.0
2019-Apr-15 12:59N 25°47' W 080°10'0 0.0
2019-Apr-15 12:29N 25°47' W 080°10'0 0.0
2019-Apr-15 11:59N 25°47' W 080°10'0 0.0
2019-Apr-15 11:29N 25°47' W 080°10'0 0.0
2019-Apr-15 10:59N 25°47' W 080°10'0 0.0
2019-Apr-15 10:29N 25°47' W 080°10'0 0.0
2019-Apr-15 09:59N 25°47' W 080°10'0 0.0
2019-Apr-15 09:29N 25°47' W 080°10'0 1.0
2019-Apr-15 09:01N 25°47' W 080°11'2 4.7
2019-Apr-15 08:30N 25°46' W 080°09'611.6
2019-Apr-15 08:00N 25°46' W 080°02'611.5
2019-Apr-15 07:30N 25°41' W 079°59'816.4
2019-Apr-15 07:01N 25°33' W 079°58'  

Dump ship's entire track history